createdAt,value
2022-12-16T00:02:28.763Z,-2.15
2022-12-16T00:07:34.590Z,-1.84
2022-12-16T00:12:38.427Z,-1.81
2022-12-16T00:17:42.312Z,-1.95
2022-12-16T00:22:47.657Z,-2.00
2022-12-16T00:27:54.878Z,-1.91
2022-12-16T00:33:01.332Z,-1.47
2022-12-16T00:38:06.690Z,-0.85
2022-12-16T00:43:12.099Z,-1.70
2022-12-16T00:48:16.490Z,-1.49
2022-12-16T00:53:21.783Z,-1.74
2022-12-16T00:58:25.728Z,-1.77
2022-12-16T01:03:29.945Z,-1.71
2022-12-16T01:08:35.436Z,-1.75
2022-12-16T01:13:39.315Z,-1.73
2022-12-16T01:18:43.376Z,-1.49
2022-12-16T01:23:50.050Z,-1.37
2022-12-16T01:28:55.114Z,-1.64
2022-12-16T01:33:59.309Z,-1.69
2022-12-16T01:39:05.425Z,-1.45
2022-12-16T01:44:15.570Z,-0.63
2022-12-16T01:49:25.333Z,-0.80
2022-12-16T01:54:37.044Z,-0.82
2022-12-16T01:59:43.913Z,-0.73
2022-12-16T02:05:01.682Z,-0.58
2022-12-16T02:10:08.183Z,-0.55
2022-12-16T02:15:28.884Z,-0.09
2022-12-16T02:21:03.679Z,-0.42
2022-12-16T02:26:33.731Z,-0.32
2022-12-16T02:31:47.151Z,-0.16
2022-12-16T02:37:05.131Z,-0.66
2022-12-16T02:42:17.798Z,-0.74
2022-12-16T02:47:23.096Z,-0.80
2022-12-16T02:52:29.060Z,-0.71
2022-12-16T02:58:11.143Z,-0.45
2022-12-16T03:03:25.464Z,-0.38
2022-12-16T03:08:34.120Z,-0.63
2022-12-16T03:13:42.416Z,-0.67
2022-12-16T03:18:52.572Z,-0.89
2022-12-16T03:24:02.147Z,-0.62
2022-12-16T03:29:10.973Z,-0.41
2022-12-16T03:34:21.219Z,-0.55
2022-12-16T03:39:27.228Z,-0.70
2022-12-16T03:44:32.303Z,-0.36
2022-12-16T03:49:38.297Z,-0.25
2022-12-16T03:54:42.227Z,-0.41
2022-12-16T03:59:46.224Z,-0.24
2022-12-16T04:04:51.603Z,-0.04
2022-12-16T04:09:55.435Z,-0.60
2022-12-16T04:15:17.020Z,-0.35
2022-12-16T04:20:46.708Z,-0.55
2022-12-16T04:25:51.529Z,-0.54
2022-12-16T04:30:55.795Z,-0.34
2022-12-16T04:36:18.815Z,-0.52
2022-12-16T04:41:40.153Z,0.13
2022-12-16T04:47:02.026Z,-0.34
2022-12-16T04:52:24.721Z,-0.38
2022-12-16T04:57:51.277Z,-0.04
2022-12-16T05:03:12.537Z,-0.31
2022-12-16T05:08:35.617Z,-0.21
2022-12-16T05:13:57.064Z,-0.09
2022-12-16T05:19:18.343Z,-0.17
2022-12-16T05:24:41.404Z,0.12
2022-12-16T05:30:02.895Z,0.18
2022-12-16T05:35:25.102Z,-0.06
2022-12-16T05:40:47.808Z,0.06
2022-12-16T05:46:09.295Z,0.13
2022-12-16T05:51:30.820Z,0.46
2022-12-16T05:56:53.672Z,0.22
2022-12-16T06:02:15.404Z,0.55
2022-12-16T06:07:36.900Z,0.69
2022-12-16T06:12:59.568Z,0.52
2022-12-16T06:18:20.779Z,0.36
2022-12-16T06:23:42.089Z,0.15
2022-12-16T06:29:04.606Z,0.28
2022-12-16T06:34:25.583Z,0.19
2022-12-16T06:39:51.416Z,0.26
2022-12-16T06:45:15.521Z,-0.03
2022-12-16T06:50:39.440Z,-0.05
2022-12-16T06:56:02.529Z,0.14
2022-12-16T07:01:25.293Z,0.50
2022-12-16T07:06:47.066Z,0.56
2022-12-16T07:12:08.147Z,0.65
2022-12-16T07:17:30.891Z,1.11
2022-12-16T07:22:59.974Z,0.85
2022-12-16T07:28:26.565Z,0.77
2022-12-16T07:33:49.830Z,0.90
2022-12-16T07:39:20.307Z,0.48
2022-12-16T07:44:41.558Z,0.44
2022-12-16T07:50:04.570Z,0.68
2022-12-16T07:55:26.988Z,0.76
2022-12-16T08:00:48.181Z,1.37
2022-12-16T08:06:10.973Z,0.97
2022-12-16T08:11:32.639Z,1.64
2022-12-16T08:16:53.927Z,1.15
2022-12-16T08:22:19.286Z,1.28
2022-12-16T08:27:40.693Z,1.24
2022-12-16T08:33:10.718Z,1.07
2022-12-16T08:38:37.855Z,1.02
2022-12-16T08:43:59.692Z,1.31
2022-12-16T08:49:21.750Z,0.83
2022-12-16T08:54:44.368Z,0.85
2022-12-16T09:00:06.163Z,1.24
2022-12-16T09:05:28.034Z,0.94
2022-12-16T09:10:50.614Z,0.88
2022-12-16T09:16:17.590Z,1.32
2022-12-16T09:21:40.630Z,0.75
2022-12-16T09:27:03.438Z,1.31
2022-12-16T09:32:39.770Z,1.43
2022-12-16T09:38:04.983Z,0.99
2022-12-16T09:43:45.625Z,0.91
2022-12-16T09:49:14.897Z,1.01
2022-12-16T09:54:38.766Z,1.21
2022-12-16T10:00:12.591Z,1.11
2022-12-16T10:05:41.682Z,1.56
2022-12-16T10:11:13.365Z,2.28
2022-12-16T10:16:45.548Z,2.88
2022-12-16T10:22:14.884Z,1.75
2022-12-16T10:27:42.010Z,1.14
2022-12-16T10:33:06.989Z,1.31
2022-12-16T10:38:39.567Z,1.73
2022-12-16T10:44:06.530Z,1.93
2022-12-16T10:49:33.628Z,2.32
2022-12-16T10:55:01.334Z,2.11
2022-12-16T11:00:31.366Z,1.98
2022-12-16T11:05:54.322Z,1.82
2022-12-16T11:11:31.163Z,2.03
2022-12-16T11:17:07.452Z,2.75
2022-12-16T11:22:45.349Z,2.27
2022-12-16T11:28:07.149Z,2.70
2022-12-16T11:33:42.518Z,2.47
2022-12-16T11:39:08.076Z,2.07
2022-12-16T11:44:37.455Z,2.18
2022-12-16T11:49:59.150Z,2.00
2022-12-16T11:56:03.724Z,2.03
2022-12-16T12:01:21.710Z,1.98
2022-12-16T12:06:51.240Z,2.26
2022-12-16T12:12:33.256Z,3.27
2022-12-16T12:18:03.242Z,2.78
2022-12-16T12:23:26.701Z,3.35
2022-12-16T12:29:05.753Z,3.01
2022-12-16T12:34:37.646Z,2.62
2022-12-16T12:40:10.510Z,3.01
2022-12-16T12:46:02.803Z,3.59
2022-12-16T12:51:30.718Z,3.12
2022-12-16T12:57:06.089Z,2.51
2022-12-16T13:02:34.684Z,2.67
2022-12-16T13:07:56.238Z,3.02
2022-12-16T13:13:47.482Z,3.55
2022-12-16T13:19:53.717Z,3.20
2022-12-16T13:25:29.351Z,2.63
2022-12-16T13:30:52.693Z,3.58
2022-12-16T13:36:18.682Z,3.12
2022-12-16T13:42:16.362Z,2.48
2022-12-16T13:47:51.200Z,2.38
2022-12-16T13:53:18.938Z,3.35
2022-12-16T13:58:53.902Z,3.87
2022-12-16T14:04:19.036Z,3.49
2022-12-16T14:09:51.098Z,2.96
2022-12-16T14:15:19.818Z,3.23
2022-12-16T14:20:48.616Z,2.97
2022-12-16T14:26:16.182Z,3.74
2022-12-16T14:31:41.503Z,2.60
2022-12-16T14:37:04.171Z,1.98
2022-12-16T14:42:38.306Z,2.13
2022-12-16T14:48:00.104Z,1.88
2022-12-16T14:53:37.703Z,2.60
2022-12-16T14:59:00.900Z,2.83
2022-12-16T15:04:27.635Z,2.85
2022-12-16T15:09:53.299Z,3.09
2022-12-16T15:15:20.073Z,1.33
2022-12-16T15:20:45.280Z,1.95
2022-12-16T15:26:14.619Z,1.38
2022-12-16T15:31:44.241Z,1.48
2022-12-16T15:37:03.391Z,1.18
2022-12-16T15:42:36.792Z,1.69
2022-12-16T15:47:59.453Z,1.29
2022-12-16T15:53:35.058Z,1.40
2022-12-16T15:58:56.929Z,1.21
2022-12-16T16:04:20.203Z,0.72
2022-12-16T16:09:46.036Z,1.04
2022-12-16T16:15:07.569Z,0.90
2022-12-16T16:20:33.878Z,1.24
2022-12-16T16:26:00.526Z,1.28
2022-12-16T16:31:28.498Z,0.62
2022-12-16T16:36:51.828Z,1.17
2022-12-16T16:42:14.194Z,1.06
2022-12-16T16:47:36.751Z,1.46
2022-12-16T16:52:59.380Z,1.58
2022-12-16T16:58:25.277Z,1.19
2022-12-16T17:03:58.614Z,1.09
2022-12-16T17:09:22.006Z,0.31
2022-12-16T17:14:43.762Z,0.84
2022-12-16T17:20:05.648Z,0.32
2022-12-16T17:25:29.125Z,0.46
2022-12-16T17:30:50.692Z,0.28
2022-12-16T17:36:13.059Z,-0.20
2022-12-16T17:41:35.837Z,0.47
2022-12-16T17:46:57.744Z,-0.16
2022-12-16T17:52:19.760Z,0.09
2022-12-16T17:57:42.705Z,0.69
2022-12-16T18:03:04.640Z,0.14
2022-12-16T18:08:26.995Z,-0.01
2022-12-16T18:13:49.933Z,-0.14
2022-12-16T18:19:11.986Z,0.90
2022-12-16T18:24:33.885Z,0.11
2022-12-16T18:29:58.845Z,0.20
2022-12-16T18:35:21.120Z,0.49
2022-12-16T18:40:42.911Z,0.48
2022-12-16T18:46:11.355Z,0.16
2022-12-16T18:51:33.078Z,1.11
2022-12-16T18:56:54.949Z,1.03
2022-12-16T19:02:17.999Z,0.47
2022-12-16T19:07:39.912Z,-0.06
2022-12-16T19:13:01.085Z,1.39
2022-12-16T19:18:23.812Z,0.05
2022-12-16T19:23:45.708Z,-0.31
2022-12-16T19:29:07.450Z,0.07
2022-12-16T19:34:30.912Z,0.05
2022-12-16T19:39:53.842Z,0.95
2022-12-16T19:45:15.388Z,1.01
2022-12-16T19:50:46.908Z,1.39
2022-12-16T19:56:13.799Z,1.36
2022-12-16T20:01:35.496Z,1.79
2022-12-16T20:06:58.277Z,1.34
2022-12-16T20:12:19.634Z,0.47
2022-12-16T20:17:41.331Z,0.95
2022-12-16T20:23:07.356Z,0.85
2022-12-16T20:28:36.211Z,-0.03
2022-12-16T20:34:05.159Z,0.66
2022-12-16T20:39:29.696Z,1.04
2022-12-16T20:44:51.551Z,0.49
2022-12-16T20:50:13.636Z,0.70
2022-12-16T20:55:50.661Z,0.59
2022-12-16T21:01:20.873Z,0.82
2022-12-16T21:06:42.768Z,0.17
2022-12-16T21:12:05.685Z,0.79
2022-12-16T21:17:27.310Z,1.27
2022-12-16T21:22:49.004Z,1.00
2022-12-16T21:28:15.349Z,1.27
2022-12-16T21:33:38.712Z,1.31
2022-12-16T21:39:00.590Z,1.88
2022-12-16T21:44:28.027Z,1.33
2022-12-16T21:49:56.090Z,0.52
2022-12-16T21:55:28.623Z,0.74
2022-12-16T22:01:13.023Z,1.81
2022-12-16T22:06:49.325Z,0.56
2022-12-16T22:12:11.317Z,0.57
2022-12-16T22:17:34.221Z,0.50
2022-12-16T22:22:56.249Z,1.05
2022-12-16T22:28:19.223Z,0.42
2022-12-16T22:33:42.295Z,0.56
2022-12-16T22:39:04.137Z,0.99
2022-12-16T22:44:26.752Z,1.58
2022-12-16T22:49:49.574Z,1.13
2022-12-16T22:55:11.353Z,-0.38
2022-12-16T23:00:34.177Z,-1.08
2022-12-16T23:05:57.003Z,-1.13
2022-12-16T23:11:18.717Z,-1.46
2022-12-16T23:16:40.293Z,-1.28
2022-12-16T23:22:03.294Z,-0.94
2022-12-16T23:27:25.014Z,-1.31
2022-12-16T23:32:49.739Z,-1.67
2022-12-16T23:38:18.549Z,-1.54
2022-12-16T23:43:40.599Z,-1.04
2022-12-16T23:49:02.530Z,-0.78
2022-12-16T23:54:25.330Z,-1.30
2022-12-16T23:59:46.905Z,-1.47
